createdAt,value
2019-01-09T00:00:27.800Z,-21129.27
2019-01-09T00:02:56.058Z,-21120.02
2019-01-09T00:05:28.396Z,-21134.68
2019-01-09T00:08:41.008Z,-21127.85
2019-01-09T00:11:09.359Z,-21123.01
2019-01-09T00:13:38.689Z,-21120.30
2019-01-09T00:16:06.968Z,-21120.45
2019-01-09T00:18:36.215Z,-21126.99
2019-01-09T00:21:08.611Z,-21120.30
2019-01-09T00:23:36.920Z,-21117.74
2019-01-09T00:26:06.183Z,-21147.20
2019-01-09T00:28:34.455Z,-21157.57
2019-01-09T00:31:03.762Z,-21139.38
2019-01-09T00:33:32.059Z,-21146.91
2019-01-09T00:36:00.326Z,-21143.64
2019-01-09T00:38:28.685Z,-21143.79
2019-01-09T00:40:57.052Z,-21170.64
2019-01-09T00:43:26.434Z,-21162.40
2019-01-09T00:45:54.722Z,-21147.62
2019-01-09T00:48:23.073Z,-21155.45
2019-01-09T00:50:51.523Z,-21147.91
2019-01-09T00:53:20.922Z,-21136.38
2019-01-09T00:55:49.267Z,-21150.75
2019-01-09T00:58:17.612Z,-21167.66
2019-01-09T01:00:47.642Z,-21153.30
2019-01-09T01:03:43.171Z,-21152.46
2019-01-09T01:06:41.973Z,-21150.61
2019-01-09T01:09:16.624Z,-21160.56
2019-01-09T01:12:03.136Z,-21153.73
2019-01-09T01:14:50.835Z,-21153.88
2019-01-09T01:17:40.293Z,-21144.64
2019-01-09T01:20:11.785Z,-21149.76
2019-01-09T01:23:02.639Z,-21145.92
2019-01-09T01:25:36.605Z,-21156.72
2019-01-09T01:28:08.189Z,-21154.73
2019-01-09T01:31:02.309Z,-21156.29
2019-01-09T01:33:45.568Z,-21130.27
2019-01-09T01:36:19.800Z,-21152.74
2019-01-09T01:39:06.577Z,-21151.04
2019-01-09T01:41:38.045Z,-21145.92
2019-01-09T01:44:09.482Z,-21203.72
2019-01-09T01:46:57.182Z,-21179.30
2019-01-09T01:49:57.161Z,-21208.12
2019-01-09T01:52:34.364Z,-21207.55
2019-01-09T01:55:12.350Z,-21226.69
2019-01-09T01:57:46.532Z,-21231.93
2019-01-09T02:00:34.421Z,-21208.69
2019-01-09T02:03:11.652Z,-21229.95
2019-01-09T02:05:45.919Z,-21246.24
2019-01-09T02:08:47.704Z,-21289.39
2019-01-09T02:11:27.787Z,-21255.30
2019-01-09T02:13:59.282Z,-21254.45
2019-01-09T02:16:51.173Z,-21243.69
2019-01-09T02:19:37.441Z,-21241.71
2019-01-09T02:22:11.898Z,-21281.47
2019-01-09T02:24:43.358Z,-21258.42
2019-01-09T02:27:14.807Z,-21241.57
2019-01-09T02:29:46.318Z,-21249.92
2019-01-09T02:32:33.367Z,-21269.31
2019-01-09T02:35:02.611Z,-21231.37
2019-01-09T02:37:32.815Z,-21230.66
2019-01-09T02:40:01.102Z,-21212.65
2019-01-09T02:42:29.475Z,-21239.72
2019-01-09T02:44:57.779Z,-21232.93
2019-01-09T02:47:26.081Z,-21241.99
2019-01-09T02:49:54.875Z,-21219.04
2019-01-09T02:52:23.184Z,-21218.61
2019-01-09T02:54:52.486Z,-21225.13
2019-01-09T02:57:20.775Z,-21201.31
2019-01-09T02:59:49.063Z,-21182.72
2019-01-09T03:02:17.325Z,-21197.62
2019-01-09T03:04:45.681Z,-21168.94
2019-01-09T03:07:13.952Z,-21173.48
2019-01-09T03:09:42.217Z,-21228.11
2019-01-09T03:12:10.487Z,-21251.62
2019-01-09T03:14:38.808Z,-21236.61
2019-01-09T03:17:07.025Z,-21207.97
2019-01-09T03:19:35.295Z,-21232.79
2019-01-09T03:22:04.565Z,-21222.30
2019-01-09T03:24:32.871Z,-21211.24
2019-01-09T03:27:01.136Z,-21248.64
2019-01-09T03:29:29.564Z,-21209.82
2019-01-09T03:31:57.897Z,-21226.69
2019-01-09T03:34:26.166Z,-21248.79
2019-01-09T03:36:54.454Z,-21245.25
2019-01-09T03:39:22.723Z,-21283.31
2019-01-09T03:41:50.997Z,-21209.82
2019-01-09T03:44:19.249Z,-21218.61
2019-01-09T03:46:47.527Z,-21235.34
2019-01-09T03:49:15.844Z,-21236.18
2019-01-09T03:51:44.179Z,-21212.37
2019-01-09T03:54:13.400Z,-21218.75
2019-01-09T03:56:41.675Z,-21212.80
2019-01-09T03:59:09.961Z,-21196.20
2019-01-09T04:01:38.241Z,-21200.04
2019-01-09T04:04:06.537Z,-21180.02
2019-01-09T04:06:41.781Z,-21210.39
2019-01-09T04:09:05.464Z,-21205.99
2019-01-09T04:11:33.888Z,-21199.04
2019-01-09T04:14:02.210Z,-21242.42
2019-01-09T04:16:31.473Z,-21231.51
2019-01-09T04:18:59.770Z,-21237.60
2019-01-09T04:21:29.062Z,-21269.31
2019-01-09T04:23:57.320Z,-21257.57
2019-01-09T04:26:25.613Z,-21203.29
2019-01-09T04:28:53.930Z,-21228.96
2019-01-09T04:31:22.183Z,-21219.32
2019-01-09T04:33:50.452Z,-21218.89
2019-01-09T04:36:20.406Z,-21209.96
2019-01-09T04:38:48.676Z,-21192.23
2019-01-09T04:41:16.975Z,-21184.56
2019-01-09T04:43:45.260Z,-21199.47
2019-01-09T04:46:13.515Z,-21198.19
2019-01-09T04:48:41.773Z,-21181.59
2019-01-09T04:51:10.063Z,-21183.29
2019-01-09T04:53:38.311Z,-21178.88
2019-01-09T04:56:06.595Z,-21178.31
2019-01-09T04:58:34.860Z,-21187.12
2019-01-09T05:01:04.166Z,-21186.98
2019-01-09T05:03:33.466Z,-21186.98
2019-01-09T05:06:01.735Z,-21184.28
2019-01-09T05:08:30.007Z,-21177.74
2019-01-09T05:10:58.296Z,-21175.61
2019-01-09T05:13:27.587Z,-21179.30
2019-01-09T05:15:55.848Z,-21175.75
2019-01-09T05:18:25.205Z,-21185.27
2019-01-09T05:20:53.496Z,-21187.69
2019-01-09T05:23:23.285Z,-21174.19
2019-01-09T05:25:51.630Z,-21166.52
2019-01-09T05:28:20.939Z,-21174.91
2019-01-09T05:30:50.247Z,-21188.54
2019-01-09T05:33:18.540Z,-21187.69
2019-01-09T05:35:46.798Z,-21177.32
2019-01-09T05:38:15.079Z,-21160.70
2019-01-09T05:40:43.360Z,-21174.48
2019-01-09T05:43:11.724Z,-21172.49
2019-01-09T05:45:39.994Z,-21171.50
2019-01-09T05:48:08.273Z,-21162.97
2019-01-09T05:50:36.591Z,-21165.68
2019-01-09T05:53:05.956Z,-21181.73
2019-01-09T05:55:35.257Z,-21174.05
2019-01-09T05:58:03.544Z,-21179.45
2019-01-09T06:00:32.835Z,-21164.82
2019-01-09T06:03:01.141Z,-21148.19
2019-01-09T06:05:29.394Z,-21164.11
2019-01-09T06:07:57.677Z,-21165.10
2019-01-09T06:10:25.961Z,-21163.26
2019-01-09T06:12:55.244Z,-21175.61
2019-01-09T06:15:23.552Z,-21158.85
2019-01-09T06:17:51.847Z,-21152.46
2019-01-09T06:20:20.124Z,-21153.73
2019-01-09T06:22:48.417Z,-21164.11
2019-01-09T06:25:16.712Z,-21164.11
2019-01-09T06:27:44.985Z,-21154.16
2019-01-09T06:30:16.421Z,-21164.39
2019-01-09T06:32:44.803Z,-21155.45
2019-01-09T06:35:13.160Z,-21148.90
2019-01-09T06:37:41.516Z,-21158.42
2019-01-09T06:40:09.784Z,-21155.02
2019-01-09T06:42:38.046Z,-21140.09
2019-01-09T06:45:06.809Z,-21147.77
2019-01-09T06:47:37.071Z,-21145.35
2019-01-09T06:50:08.524Z,-21156.58
2019-01-09T06:52:37.053Z,-21145.92
2019-01-09T06:55:05.561Z,-21148.62
2019-01-09T06:57:33.851Z,-21139.09
2019-01-09T07:00:02.126Z,-21144.21
2019-01-09T07:02:30.426Z,-21153.45
2019-01-09T07:04:58.788Z,-21156.44
2019-01-09T07:07:35.809Z,-21159.42
2019-01-09T07:09:57.177Z,-21147.48
2019-01-09T07:12:25.474Z,-21159.42
2019-01-09T07:14:53.961Z,-21168.80
2019-01-09T07:17:22.242Z,-21152.74
2019-01-09T07:19:50.530Z,-21151.46
2019-01-09T07:22:18.796Z,-21145.92
2019-01-09T07:24:47.123Z,-21172.77
2019-01-09T07:27:15.401Z,-21189.82
2019-01-09T07:29:43.682Z,-21178.17
2019-01-09T07:32:13.945Z,-21184.42
2019-01-09T07:34:42.203Z,-21165.82
2019-01-09T07:37:10.500Z,-21173.77
2019-01-09T07:39:40.007Z,-21186.13
2019-01-09T07:42:08.368Z,-21182.72
2019-01-09T07:44:36.633Z,-21182.01
2019-01-09T07:47:04.968Z,-21173.34
2019-01-09T07:49:33.316Z,-21178.74
2019-01-09T07:52:01.619Z,-21171.07
2019-01-09T07:54:29.891Z,-21177.18
2019-01-09T07:56:58.173Z,-21175.19
2019-01-09T07:59:26.459Z,-21181.44
2019-01-09T08:01:55.751Z,-21183.86
2019-01-09T08:04:24.017Z,-21186.70
2019-01-09T08:06:52.326Z,-21176.04
2019-01-09T08:09:20.657Z,-21165.68
2019-01-09T08:11:48.921Z,-21169.08
2019-01-09T08:14:17.190Z,-21192.65
2019-01-09T08:16:45.533Z,-21196.49
2019-01-09T08:19:13.873Z,-21190.66
2019-01-09T08:21:42.175Z,-21178.88
2019-01-09T08:24:15.557Z,-21185.27
2019-01-09T08:26:44.017Z,-21186.84
2019-01-09T08:29:12.306Z,-21179.30
2019-01-09T08:31:40.621Z,-21170.36
2019-01-09T08:34:08.907Z,-21178.31
2019-01-09T08:36:37.182Z,-21168.94
2019-01-09T08:39:06.679Z,-21187.26
2019-01-09T08:41:35.195Z,-21174.76
2019-01-09T08:44:03.461Z,-21179.30
2019-01-09T08:46:31.730Z,-21182.29
2019-01-09T08:48:59.977Z,-21174.34
2019-01-09T08:51:28.256Z,-21184.42
2019-01-09T08:53:57.530Z,-21185.84
2019-01-09T08:56:25.828Z,-21181.29
2019-01-09T08:58:56.168Z,-21193.93
2019-01-09T09:01:24.479Z,-21204.43
2019-01-09T09:03:53.992Z,-21187.26
2019-01-09T09:06:29.216Z,-21202.73
2019-01-09T09:09:02.235Z,-21178.17
2019-01-09T09:11:32.476Z,-21170.79
2019-01-09T09:14:00.761Z,-21179.02
2019-01-09T09:16:36.634Z,-21192.51
2019-01-09T09:18:59.093Z,-21189.25
2019-01-09T09:21:27.497Z,-21166.10
2019-01-09T09:23:55.741Z,-21152.46
2019-01-09T09:26:24.036Z,-21165.10
2019-01-09T09:28:52.291Z,-21199.18
2019-01-09T09:31:20.570Z,-21180.16
2019-01-09T09:33:48.841Z,-21178.31
2019-01-09T09:36:17.104Z,-21173.91
2019-01-09T09:38:45.360Z,-21202.87
2019-01-09T09:41:20.655Z,-21190.39
2019-01-09T09:43:48.903Z,-21186.70
2019-01-09T09:46:17.166Z,-21197.20
2019-01-09T09:48:45.485Z,-21189.11
2019-01-09T09:51:13.752Z,-21210.95
2019-01-09T09:53:42.032Z,-21209.82
2019-01-09T09:56:11.302Z,-21227.96
2019-01-09T09:58:39.577Z,-21190.81
2019-01-09T10:01:07.838Z,-21184.14
2019-01-09T10:03:36.144Z,-21199.61
2019-01-09T10:06:04.600Z,-21197.34
2019-01-09T10:08:32.883Z,-21200.46
2019-01-09T10:11:01.291Z,-21205.57
2019-01-09T10:13:29.553Z,-21202.73
2019-01-09T10:15:57.808Z,-21197.62
2019-01-09T10:18:26.090Z,-21228.11
2019-01-09T10:20:54.522Z,-21208.40
2019-01-09T10:23:22.736Z,-21214.21
2019-01-09T10:25:51.011Z,-21207.13
2019-01-09T10:28:19.310Z,-21198.19
2019-01-09T10:30:47.707Z,-21186.55
2019-01-09T10:33:15.967Z,-21159.28
2019-01-09T10:35:44.256Z,-21124.43
2019-01-09T10:38:12.539Z,-21130.41
2019-01-09T10:40:40.783Z,-21132.83
2019-01-09T10:43:09.066Z,-21123.44
2019-01-09T10:45:37.393Z,-21125.43
2019-01-09T10:48:06.834Z,-21128.13
2019-01-09T10:50:35.133Z,-21154.16
2019-01-09T10:53:03.393Z,-21133.54
2019-01-09T10:55:31.664Z,-21147.34
2019-01-09T10:57:59.929Z,-21145.49
2019-01-09T11:00:28.244Z,-21137.53
2019-01-09T11:02:56.706Z,-21156.15
2019-01-09T11:05:25.043Z,-21160.27
2019-01-09T11:07:53.311Z,-21154.30
2019-01-09T11:10:23.661Z,-21138.66
2019-01-09T11:12:52.013Z,-21132.97
2019-01-09T11:15:23.488Z,-21127.71
2019-01-09T11:17:51.768Z,-21142.79
2019-01-09T11:20:21.386Z,-21125.86
2019-01-09T11:22:49.765Z,-21123.86
2019-01-09T11:25:20.359Z,-21140.80
2019-01-09T11:27:48.731Z,-21148.48
2019-01-09T11:30:18.366Z,-21139.09
2019-01-09T11:32:46.766Z,-21179.59
2019-01-09T11:35:17.406Z,-21168.23
2019-01-09T11:37:45.707Z,-21162.83
2019-01-09T11:40:16.671Z,-21163.68
2019-01-09T11:42:45.005Z,-21168.09
2019-01-09T11:45:18.804Z,-21164.54
2019-01-09T11:47:47.623Z,-21152.74
2019-01-09T11:50:16.678Z,-21147.05
2019-01-09T11:52:45.058Z,-21138.52
2019-01-09T11:55:14.670Z,-21149.76
2019-01-09T11:57:42.930Z,-21151.46
2019-01-09T12:00:22.863Z,-21147.91
2019-01-09T12:02:52.256Z,-21154.73
2019-01-09T12:05:20.517Z,-21142.79
2019-01-09T12:07:48.859Z,-21146.77
2019-01-09T12:10:19.462Z,-21174.34
2019-01-09T12:12:47.810Z,-21167.09
2019-01-09T12:15:17.538Z,-21146.06
2019-01-09T12:17:45.875Z,-21143.50
2019-01-09T12:20:18.476Z,-21145.06
2019-01-09T12:22:47.123Z,-21150.61
2019-01-09T12:25:15.393Z,-21142.08
2019-01-09T12:27:43.674Z,-21136.67
2019-01-09T12:30:26.515Z,-21162.40
2019-01-09T12:32:54.842Z,-21144.78
2019-01-09T12:35:23.338Z,-21168.09
2019-01-09T12:37:51.703Z,-21148.34
2019-01-09T12:40:20.118Z,-21157.86
2019-01-09T12:42:48.418Z,-21167.66
2019-01-09T12:45:17.459Z,-21169.65
2019-01-09T12:47:46.840Z,-21173.77
2019-01-09T12:50:18.431Z,-21164.68
2019-01-09T12:52:46.696Z,-21174.19
2019-01-09T12:55:15.024Z,-21186.55
2019-01-09T12:57:43.283Z,-21174.19
2019-01-09T13:00:20.762Z,-21173.20
2019-01-09T13:02:50.022Z,-21204.29
2019-01-09T13:05:18.316Z,-21225.84
2019-01-09T13:07:46.593Z,-21221.30
2019-01-09T13:10:14.990Z,-21209.54
2019-01-09T13:12:43.568Z,-21195.07
2019-01-09T13:15:12.172Z,-21202.59
2019-01-09T13:17:40.496Z,-21180.16
2019-01-09T13:20:14.029Z,-21198.61
2019-01-09T13:22:42.598Z,-21157.86
2019-01-09T13:25:12.403Z,-21189.67
2019-01-09T13:27:44.355Z,-21201.88
2019-01-09T13:30:15.823Z,-21170.79
2019-01-09T13:32:44.172Z,-21190.81
2019-01-09T13:35:12.502Z,-21196.91
2019-01-09T13:37:40.772Z,-21209.25
2019-01-09T13:40:14.128Z,-21213.64
2019-01-09T13:42:42.444Z,-21191.52
2019-01-09T13:45:13.459Z,-21194.36
2019-01-09T13:47:41.997Z,-21165.82
2019-01-09T13:50:12.797Z,-21188.82
2019-01-09T13:52:41.052Z,-21157.29
2019-01-09T13:55:11.663Z,-21187.12
2019-01-09T13:57:40.114Z,-21174.05
2019-01-09T14:00:11.636Z,-21187.54
2019-01-09T14:02:40.573Z,-21199.32
2019-01-09T14:05:09.867Z,-21201.31
2019-01-09T14:07:38.234Z,-21215.92
2019-01-09T14:10:23.875Z,-21186.27
2019-01-09T14:12:52.137Z,-21200.32
2019-01-09T14:15:21.847Z,-21175.33
2019-01-09T14:20:35.445Z,-21185.27
2019-01-09T14:23:03.691Z,-21189.11
2019-01-09T14:25:31.967Z,-21158.00
2019-01-09T14:28:01.482Z,-21167.66
2019-01-09T14:30:30.056Z,-21182.72
2019-01-09T14:32:58.318Z,-21197.91
2019-01-09T14:35:26.607Z,-21135.67
2019-01-09T14:37:54.893Z,-21145.35
2019-01-09T14:40:23.227Z,-21165.68
2019-01-09T14:42:51.516Z,-21172.92
2019-01-09T14:45:19.791Z,-21196.63
2019-01-09T14:47:48.098Z,-21192.80
2019-01-09T14:50:19.112Z,-21188.96
2019-01-09T14:52:47.390Z,-21190.52
2019-01-09T14:55:16.402Z,-21202.16
2019-01-09T14:57:45.025Z,-21206.55
2019-01-09T15:00:16.394Z,-21171.64
2019-01-09T15:02:44.682Z,-21161.98
2019-01-09T15:05:13.076Z,-21177.18
2019-01-09T15:07:41.378Z,-21181.73
2019-01-09T15:10:18.076Z,-21159.14
2019-01-09T15:12:47.003Z,-21167.52
2019-01-09T15:15:17.128Z,-21160.70
2019-01-09T15:17:45.427Z,-21167.52
2019-01-09T15:20:22.037Z,-21164.68
2019-01-09T15:22:50.363Z,-21181.44
2019-01-09T15:25:19.012Z,-21169.23
2019-01-09T15:27:47.660Z,-21172.20
2019-01-09T15:30:19.115Z,-21195.21
2019-01-09T15:32:47.589Z,-21158.00
2019-01-09T15:35:15.854Z,-21170.93
2019-01-09T15:37:44.115Z,-21155.72
2019-01-09T15:40:18.567Z,-21170.93
2019-01-09T15:42:47.017Z,-21183.14
2019-01-09T15:45:15.371Z,-21187.40
2019-01-09T15:47:44.201Z,-21184.56
2019-01-09T15:50:20.988Z,-21196.20
2019-01-09T15:52:49.274Z,-21173.06
2019-01-09T15:55:17.876Z,-21174.91
2019-01-09T15:57:47.886Z,-21169.51
2019-01-09T16:00:19.443Z,-21182.86
2019-01-09T16:02:47.708Z,-21167.80
2019-01-09T16:05:16.356Z,-21160.41
2019-01-09T16:07:44.613Z,-21168.23
2019-01-09T16:10:18.792Z,-21157.57
2019-01-09T16:12:47.049Z,-21171.50
2019-01-09T16:15:17.943Z,-21184.28
2019-01-09T16:17:47.394Z,-21169.51
2019-01-09T16:20:20.452Z,-21162.40
2019-01-09T16:22:49.767Z,-21177.18
2019-01-09T16:25:20.208Z,-21158.00
2019-01-09T16:27:48.496Z,-21159.14
2019-01-09T16:30:34.212Z,-21180.87
2019-01-09T16:33:04.562Z,-21172.20
2019-01-09T16:35:35.037Z,-21164.68
2019-01-09T16:38:03.756Z,-21163.40
2019-01-09T16:40:32.308Z,-21178.17
2019-01-09T16:43:01.661Z,-21143.64
2019-01-09T16:45:30.306Z,-21176.61
2019-01-09T16:47:58.589Z,-21174.91
2019-01-09T16:50:28.268Z,-21169.51
2019-01-09T16:52:56.532Z,-21171.07
2019-01-09T16:55:25.087Z,-21178.46
2019-01-09T16:57:53.365Z,-21157.57
2019-01-09T17:00:36.722Z,-21160.41
2019-01-09T17:03:05.162Z,-21169.65
2019-01-09T17:05:33.529Z,-21168.23
2019-01-09T17:08:02.169Z,-21183.00
2019-01-09T17:10:32.563Z,-21178.17
2019-01-09T17:13:00.494Z,-21170.36
2019-01-09T17:15:28.839Z,-21165.10
2019-01-09T17:17:57.187Z,-21171.78
2019-01-09T17:20:27.432Z,-21158.28
2019-01-09T17:22:57.761Z,-21173.63
2019-01-09T17:25:26.099Z,-21190.81
2019-01-09T17:27:55.501Z,-21178.03
2019-01-09T17:30:27.308Z,-21169.65
2019-01-09T17:32:55.722Z,-21196.77
2019-01-09T17:35:24.096Z,-21158.71
2019-01-09T17:37:52.664Z,-21176.18
2019-01-09T17:40:25.540Z,-21195.77
2019-01-09T17:42:54.137Z,-21179.59
2019-01-09T17:45:22.421Z,-21184.00
2019-01-09T17:47:57.664Z,-21189.82
2019-01-09T17:50:51.571Z,-21159.70
2019-01-09T17:53:19.894Z,-21155.30
2019-01-09T17:55:48.142Z,-21158.00
2019-01-09T17:58:17.426Z,-21151.60
2019-01-09T18:00:46.154Z,-21146.20
2019-01-09T18:03:15.448Z,-21157.71
2019-01-09T18:05:43.735Z,-21170.50
2019-01-09T18:08:12.028Z,-21173.63
2019-01-09T18:10:40.290Z,-21154.16
2019-01-09T18:13:12.333Z,-21151.46
2019-01-09T18:15:40.699Z,-21159.99
2019-01-09T18:18:09.018Z,-21154.59
2019-01-09T18:20:37.278Z,-21162.97
2019-01-09T18:23:05.693Z,-21171.78
2019-01-09T18:25:33.980Z,-21171.64
2019-01-09T18:28:02.268Z,-21177.32
2019-01-09T18:30:45.922Z,-21152.74
2019-01-09T18:33:19.808Z,-21139.66
2019-01-09T18:36:10.274Z,-21164.39
2019-01-09T18:38:53.125Z,-21167.95
2019-01-09T18:41:24.574Z,-21184.71
2019-01-09T18:44:04.624Z,-21150.18
2019-01-09T18:47:04.264Z,-21160.13
2019-01-09T18:49:41.670Z,-21157.57
2019-01-09T18:52:15.891Z,-21151.60
2019-01-09T18:54:44.195Z,-21170.50
2019-01-09T18:57:12.496Z,-21146.63
2019-01-09T18:59:40.761Z,-21151.89
2019-01-09T19:02:10.361Z,-21160.13
2019-01-09T19:04:40.077Z,-21167.52
2019-01-09T19:07:08.772Z,-21140.09
2019-01-09T19:09:37.094Z,-21148.48
2019-01-09T19:12:05.488Z,-21155.30
2019-01-09T19:14:33.739Z,-21163.82
2019-01-09T19:17:02.016Z,-21170.93
2019-01-09T19:19:30.607Z,-21170.36
2019-01-09T19:21:58.824Z,-21153.59
2019-01-09T19:24:27.116Z,-21166.38
2019-01-09T19:26:55.366Z,-21169.93
2019-01-09T19:29:23.718Z,-21167.52
2019-01-09T19:31:52.344Z,-21161.70
2019-01-09T19:34:21.222Z,-21156.86
2019-01-09T19:36:49.499Z,-21153.03
2019-01-09T19:39:17.782Z,-21162.12
2019-01-09T19:41:46.062Z,-21156.72
2019-01-09T19:44:14.372Z,-21159.42
2019-01-09T19:46:42.634Z,-21157.15
2019-01-09T19:49:10.932Z,-21138.80
2019-01-09T19:51:39.203Z,-21170.07
2019-01-09T19:54:07.488Z,-21178.03
2019-01-09T19:56:35.762Z,-21165.25
2019-01-09T19:59:04.280Z,-21189.82
2019-01-09T20:01:32.590Z,-21181.73
2019-01-09T20:04:00.843Z,-21187.26
2019-01-09T20:06:29.104Z,-21182.29
2019-01-09T20:08:57.412Z,-21185.27
2019-01-09T20:11:26.479Z,-21162.12
2019-01-09T20:13:54.971Z,-21187.40
2019-01-09T20:16:23.288Z,-21161.13
2019-01-09T20:18:51.540Z,-21158.42
2019-01-09T20:21:19.885Z,-21162.40
2019-01-09T20:23:48.225Z,-21169.79
2019-01-09T20:26:16.599Z,-21182.72
2019-01-09T20:28:44.932Z,-21169.65
2019-01-09T20:31:13.281Z,-21172.92
2019-01-09T20:33:41.505Z,-21165.82
2019-01-09T20:36:09.777Z,-21190.25
2019-01-09T20:38:38.184Z,-21170.79
2019-01-09T20:41:06.517Z,-21163.82
2019-01-09T20:43:34.822Z,-21158.42
2019-01-09T20:46:03.236Z,-21170.64
2019-01-09T20:48:31.609Z,-21191.80
2019-01-09T20:51:00.009Z,-21173.20
2019-01-09T20:53:28.357Z,-21148.76
2019-01-09T20:55:56.759Z,-21178.03
2019-01-09T20:58:25.010Z,-21179.30
2019-01-09T21:00:53.411Z,-21163.54
2019-01-09T21:03:21.862Z,-21175.19
2019-01-09T21:05:50.094Z,-21185.70
2019-01-09T21:08:19.606Z,-21165.39
2019-01-09T21:10:48.103Z,-21179.87
2019-01-09T21:13:16.392Z,-21202.59
2019-01-09T21:15:44.779Z,-21149.33
2019-01-09T21:18:13.185Z,-21137.38
2019-01-09T21:20:41.581Z,-21155.30
2019-01-09T21:23:09.936Z,-21154.30
2019-01-09T21:25:39.288Z,-21173.77
2019-01-09T21:28:07.604Z,-21175.90
2019-01-09T21:30:36.989Z,-21193.79
2019-01-09T21:33:05.671Z,-21174.48
2019-01-09T21:35:36.607Z,-21175.75
2019-01-09T21:38:06.905Z,-21160.27
2019-01-09T21:40:35.210Z,-21150.61
2019-01-09T21:43:03.596Z,-21164.54
2019-01-09T21:45:31.950Z,-21158.42
2019-01-09T21:48:00.266Z,-21169.08
2019-01-09T21:50:28.883Z,-21175.33
2019-01-09T21:52:57.226Z,-21204.15
2019-01-09T21:55:25.660Z,-21203.58
2019-01-09T21:57:54.893Z,-21187.97
2019-01-09T22:00:25.227Z,-21159.57
2019-01-09T22:02:53.492Z,-21183.71
2019-01-09T22:05:22.433Z,-21173.77
2019-01-09T22:07:51.498Z,-21152.32
2019-01-09T22:10:27.987Z,-21135.81
2019-01-09T22:12:57.420Z,-21131.55
2019-01-09T22:15:26.141Z,-21149.76
2019-01-09T22:17:55.336Z,-21169.93
2019-01-09T22:20:23.820Z,-21172.06
2019-01-09T22:22:52.103Z,-21173.77
2019-01-09T22:25:24.384Z,-21159.42
2019-01-09T22:27:55.292Z,-21155.02
2019-01-09T22:30:26.497Z,-21142.22
2019-01-09T22:33:00.805Z,-21142.22
2019-01-09T22:35:29.152Z,-21132.68
2019-01-09T22:38:04.553Z,-21129.70
2019-01-09T22:40:32.839Z,-21130.41
2019-01-09T22:43:09.910Z,-21132.68
2019-01-09T22:45:38.196Z,-21122.87
2019-01-09T22:48:07.449Z,-21153.59
2019-01-09T22:50:35.714Z,-21160.13
2019-01-09T22:53:04.073Z,-21138.38
2019-01-09T22:55:32.364Z,-21137.81
2019-01-09T22:58:00.640Z,-21117.46
2019-01-09T23:00:43.627Z,-21123.86
2019-01-09T23:03:14.221Z,-21126.71
2019-01-09T23:05:45.723Z,-21119.74
2019-01-09T23:08:14.009Z,-21132.40
2019-01-09T23:10:42.385Z,-21141.65
2019-01-09T23:13:12.876Z,-21117.74
2019-01-09T23:15:42.315Z,-21130.55
2019-01-09T23:18:12.848Z,-21136.67
2019-01-09T23:20:41.120Z,-21136.24
2019-01-09T23:23:15.932Z,-21104.93
2019-01-09T23:25:44.231Z,-21142.36
2019-01-09T23:28:12.699Z,-21152.32
2019-01-09T23:30:40.970Z,-21117.88
2019-01-09T23:33:09.352Z,-21126.71
2019-01-09T23:35:37.705Z,-21138.38
2019-01-09T23:38:06.092Z,-21122.01
2019-01-09T23:40:34.467Z,-21142.93
2019-01-09T23:43:02.829Z,-21146.20
2019-01-09T23:45:31.346Z,-21178.60
2019-01-09T23:48:01.619Z,-21157.86
2019-01-09T23:50:30.216Z,-21155.72
2019-01-09T23:53:01.777Z,-21154.59
2019-01-09T23:55:30.399Z,-21173.63
2019-01-09T23:57:58.764Z,-21158.42
